Time;durP1;ratioP1;P1;durP2;ratioP2;P2;SDS_P1;SDS_P2;PMS_P1;PMS_P2;Temp;Humidity;BMP_temperature;BMP_pressure;BME280_temperature;BME280_humidity;BME280_pressure;Samples;Min_cycle;Max_cycle;Signal;HPM_P1;HPM_P2
2023/11/16 06:11:08;;;;;;;;;;;;;;;7.28;100.00;99053.83;1847025;76;20169;-69
2023/11/16 06:23:44;;;;;;;;;;;;;;;7.46;100.00;99066.62;1827113;78;20355;-68
2023/11/16 06:26:11;;;;;;;;;;;;;;;7.52;100.00;99069.70;1813062;78;20159;-76
2023/11/16 06:28:38;;;;;;;;;;;;;;;7.58;100.00;99077.11;1803277;78;20084;-76
2023/11/16 06:31:13;;;;;;;;;;;;;;;7.64;100.00;99076.72;1819489;78;20110;-79
2023/11/16 06:48:48;;;;;;;;;;;;;;;7.91;100.00;99084.63;1816173;77;20101;-81
2023/11/16 06:51:17;;;;;;;;;;;;;;;7.93;100.00;99086.66;1812858;77;20174;-76
2023/11/16 06:53:44;;;;;;;;;;;;;;;7.96;100.00;99090.83;1815799;78;20111;-75
2023/11/16 06:56:12;;;;;;;;;;;;;;;7.99;100.00;99095.37;1797611;77;20416;-74
2023/11/16 06:58:40;;;;;;;;;;;;;;;8.03;100.00;99099.88;1824241;77;20125;-66
2023/11/16 07:01:07;;;;;;;;;;;;;;;8.04;100.00;99099.78;1822499;78;20160;-68
2023/11/16 07:21:04;;;;;;;;;;;;;;;8.07;100.00;99105.71;1752056;82;20150;-73
2023/11/16 07:23:32;;;;;;;;;;;;;;;8.03;100.00;99105.89;1754159;81;20172;-70
2023/11/16 07:36:12;;;;;;;;;;;;;;;7.88;100.00;99109.89;1751137;81;20111;-69
2023/11/16 07:38:40;;;;;;;;;;;;;;;7.86;100.00;99115.17;1759075;81;20134;-76
2023/11/16 07:41:07;;;;;;;;;;;;;;;7.86;100.00;99106.55;1773841;81;20105;-77
2023/11/16 07:53:50;;;;;;;;;;;;;;;7.68;100.00;99125.31;1759378;81;20159;-72
2023/11/16 07:56:17;;;;;;;;;;;;;;;7.64;100.00;99125.95;1759352;81;20157;-72
2023/11/16 07:58:48;;;;;;;;;;;;;;;7.64;100.00;99131.59;1762097;81;20397;-72
2023/11/16 08:01:12;;;;;;;;;;;;;;;7.64;100.00;99133.72;1761322;80;20139;-76
2023/11/16 08:03:42;;;;;;;;;;;;;;;7.66;100.00;99138.81;1758792;81;20113;-70
2023/11/16 08:06:13;;;;;;;;;;;;;;;7.65;100.00;99135.39;1766964;81;20096;-78
2023/11/16 08:08:42;;;;;;;;;;;;;;;7.65;100.00;99143.62;1746586;81;20093;-83
2023/11/16 08:11:11;;;;;;;;;;;;;;;7.63;100.00;99146.30;1752500;81;20159;-77
2023/11/16 08:13:41;;;;;;;;;;;;;;;7.62;100.00;99148.52;1762137;81;20101;-84
2023/11/16 08:16:10;;;;;;;;;;;;;;;7.59;100.00;99152.62;1738948;82;20135;-74
2023/11/16 08:18:37;;;;;;;;;;;;;;;7.59;100.00;99159.55;1750563;82;20110;-76
2023/11/16 08:21:07;;;;;;;;;;;;;;;7.58;100.00;99158.72;1750968;82;20103;-74
2023/11/16 08:23:38;;;;;;;;;;;;;;;7.57;100.00;99158.34;1752848;82;20129;-69
2023/11/16 08:26:05;;;;;;;;;;;;;;;7.57;100.00;99163.53;1752552;82;20102;-79
2023/11/16 08:28:32;;;;;;;;;;;;;;;7.57;100.00;99166.12;1741439;82;20128;-85
2023/11/16 08:30:59;;;;;;;;;;;;;;;7.54;100.00;99166.30;1744588;82;20166;-82
2023/11/16 08:33:26;;;;;;;;;;;;;;;7.50;100.00;99169.14;1744740;82;20448;-76
2023/11/16 08:35:53;;;;;;;;;;;;;;;7.47;100.00;99170.15;1740863;82;20115;-82
2023/11/16 08:55:33;;;;;;;;;;;;;;;7.70;100.00;99180.02;1732714;82;20136;-82
2023/11/16 08:58:01;;;;;;;;;;;;;;;7.74;100.00;99177.24;1722948;83;20113;-76
2023/11/16 09:00:28;;;;;;;;;;;;;;;7.79;100.00;99178.65;1724091;82;20262;-77
2023/11/16 09:02:58;;;;;;;;;;;;;;;7.85;100.00;99178.30;1729749;82;20111;-78
2023/11/16 09:05:24;;;;;;;;;;;;;;;7.92;100.00;99178.31;1747719;82;20141;-81
2023/11/16 09:07:52;;;;;;;;;;;;;;;8.03;100.00;99181.54;1744952;82;20120;-81
2023/11/16 09:10:20;;;;;;;;;;;;;;;8.12;100.00;99180.17;1739955;82;20377;-82
2023/11/16 09:12:47;;;;;;;;;;;;;;;8.22;100.00;99182.59;1739224;82;20124;-83
